createdAt,value
2023-02-05T00:01:54.903Z,7.44
2023-02-05T00:04:23.512Z,7.46
2023-02-05T00:06:52.120Z,7.47
2023-02-05T00:09:20.534Z,7.51
2023-02-05T00:11:50.313Z,7.49
2023-02-05T00:14:19.130Z,7.43
2023-02-05T00:16:48.333Z,7.45
2023-02-05T00:19:16.981Z,7.51
2023-02-05T00:21:45.362Z,7.48
2023-02-05T00:24:14.380Z,7.43
2023-02-05T00:26:43.051Z,7.49
2023-02-05T00:29:12.798Z,7.59
2023-02-05T00:31:42.169Z,7.52
2023-02-05T00:34:12.105Z,7.49
2023-02-05T00:36:41.740Z,7.44
2023-02-05T00:39:11.705Z,7.40
2023-02-05T00:41:40.585Z,7.38
2023-02-05T00:44:10.524Z,7.40
2023-02-05T00:46:39.111Z,7.49
2023-02-05T00:49:08.479Z,7.48
2023-02-05T00:51:36.846Z,7.54
2023-02-05T00:54:05.822Z,7.49
2023-02-05T00:56:34.718Z,7.57
2023-02-05T00:59:04.871Z,7.65
2023-02-05T01:01:34.329Z,7.67
2023-02-05T01:04:03.897Z,7.59
2023-02-05T01:06:32.437Z,7.55
2023-02-05T01:09:01.342Z,7.54
2023-02-05T01:11:31.292Z,7.57
2023-02-05T01:14:01.560Z,7.62
2023-02-05T01:16:32.019Z,7.63
2023-02-05T01:19:02.082Z,7.58
2023-02-05T01:21:30.592Z,7.46
2023-02-05T01:24:01.936Z,7.30
2023-02-05T01:26:30.849Z,7.17
2023-02-05T01:29:00.932Z,6.90
2023-02-05T01:31:30.018Z,6.72
2023-02-05T01:33:58.729Z,6.75
2023-02-05T01:36:27.719Z,6.80
2023-02-05T01:38:56.221Z,6.77
2023-02-05T01:41:24.811Z,6.61
2023-02-05T01:44:13.250Z,6.58
2023-02-05T01:46:43.497Z,6.77
2023-02-05T01:49:27.194Z,6.65
2023-02-05T01:51:55.880Z,6.60
2023-02-05T01:54:26.226Z,6.36
2023-02-05T01:56:57.921Z,6.45
2023-02-05T01:59:31.326Z,6.62
2023-02-05T02:02:01.172Z,6.53
2023-02-05T02:04:35.268Z,6.60
2023-02-05T02:07:04.064Z,6.58
2023-02-05T02:09:34.214Z,6.73
2023-02-05T02:12:08.447Z,6.72
2023-02-05T02:14:37.798Z,6.59
2023-02-05T02:17:06.571Z,6.57
2023-02-05T02:19:41.309Z,6.65
2023-02-05T02:22:18.968Z,6.60
2023-02-05T02:25:10.753Z,6.58
2023-02-05T02:27:49.819Z,6.62
2023-02-05T02:30:52.612Z,6.39
2023-02-05T02:33:32.537Z,6.37
2023-02-05T02:36:19.397Z,6.44
2023-02-05T02:39:07.796Z,6.39
2023-02-05T02:41:54.785Z,6.32
2023-02-05T02:44:57.406Z,6.31
2023-02-05T02:47:29.258Z,6.25
2023-02-05T02:50:02.448Z,6.23
2023-02-05T02:52:39.512Z,6.25
2023-02-05T02:55:11.400Z,6.19
2023-02-05T02:57:44.032Z,6.14
2023-02-05T03:00:14.625Z,6.08
2023-02-05T03:02:44.245Z,6.08
2023-02-05T03:05:17.365Z,6.05
2023-02-05T03:07:51.013Z,5.95
2023-02-05T03:10:36.912Z,6.03
2023-02-05T03:13:11.227Z,5.95
2023-02-05T03:15:43.480Z,5.76
2023-02-05T03:18:12.689Z,5.81
2023-02-05T03:20:54.691Z,5.90
2023-02-05T03:23:23.410Z,5.86
2023-02-05T03:25:52.551Z,5.84
2023-02-05T03:28:25.725Z,5.82
2023-02-05T03:31:04.415Z,5.74
2023-02-05T03:33:52.562Z,5.83
2023-02-05T03:36:35.120Z,5.87
2023-02-05T03:39:33.361Z,5.76
2023-02-05T03:42:26.824Z,5.77
2023-02-05T03:45:09.971Z,5.73
2023-02-05T03:47:59.130Z,5.75
2023-02-05T03:50:52.569Z,5.77
2023-02-05T03:53:44.972Z,5.63
2023-02-05T03:56:40.246Z,5.59
2023-02-05T03:59:09.169Z,5.61
2023-02-05T04:01:38.453Z,5.78
2023-02-05T04:04:07.324Z,5.86
2023-02-05T04:06:36.455Z,5.88
2023-02-05T04:09:05.180Z,5.88
2023-02-05T04:11:36.369Z,5.97
2023-02-05T04:14:08.918Z,5.87
2023-02-05T04:16:37.957Z,5.87
2023-02-05T04:19:06.713Z,6.01
2023-02-05T04:21:36.684Z,6.06
2023-02-05T04:24:07.652Z,5.96
2023-02-05T04:26:40.378Z,6.02
2023-02-05T04:29:09.845Z,6.04
2023-02-05T04:31:43.321Z,6.04
2023-02-05T04:34:12.414Z,6.04
2023-02-05T04:36:41.472Z,6.13
2023-02-05T04:39:09.883Z,6.14
2023-02-05T04:41:40.063Z,6.05
2023-02-05T04:44:10.547Z,5.92
2023-02-05T04:46:41.704Z,5.80
2023-02-05T04:51:53.411Z,5.64
2023-02-05T04:54:22.858Z,5.25
2023-02-05T04:56:51.560Z,5.37
2023-02-05T04:59:21.650Z,5.22
2023-02-05T05:01:50.211Z,5.51
2023-02-05T05:04:19.723Z,5.58
2023-02-05T05:06:48.572Z,5.63
2023-02-05T05:09:24.343Z,5.60
2023-02-05T05:11:55.197Z,5.57
2023-02-05T05:14:24.355Z,5.68
2023-02-05T05:16:55.954Z,5.68
2023-02-05T05:19:26.046Z,5.72
2023-02-05T05:21:56.570Z,5.72
2023-02-05T05:24:24.948Z,5.70
2023-02-05T05:26:53.406Z,5.78
2023-02-05T05:29:21.865Z,5.67
2023-02-05T05:31:53.928Z,5.70
2023-02-05T05:34:22.958Z,5.77
2023-02-05T05:36:53.555Z,5.75
2023-02-05T05:39:40.942Z,5.58
2023-02-05T05:42:29.275Z,5.58
2023-02-05T05:44:58.723Z,5.69
2023-02-05T05:47:26.995Z,5.64
2023-02-05T05:49:55.755Z,5.55
2023-02-05T05:52:26.312Z,5.59
2023-02-05T05:54:55.740Z,5.83
2023-02-05T05:57:24.517Z,5.89
2023-02-05T05:59:52.996Z,5.81
2023-02-05T06:03:04.393Z,5.75
2023-02-05T06:05:34.724Z,5.75
2023-02-05T06:08:05.484Z,5.78
2023-02-05T06:10:34.339Z,5.52
2023-02-05T06:13:03.244Z,5.62
2023-02-05T06:15:32.027Z,5.72
2023-02-05T06:18:01.358Z,5.78
2023-02-05T06:20:30.158Z,5.79
2023-02-05T06:22:58.415Z,5.63
2023-02-05T06:25:27.486Z,5.73
2023-02-05T06:27:56.357Z,5.76
2023-02-05T06:30:24.867Z,5.67
2023-02-05T06:32:54.547Z,5.78
2023-02-05T06:35:23.524Z,5.77
2023-02-05T06:37:52.520Z,5.85
2023-02-05T06:40:22.742Z,5.97
2023-02-05T06:42:52.955Z,6.02
2023-02-05T06:45:24.076Z,6.02
2023-02-05T06:47:56.886Z,6.01
2023-02-05T06:50:25.888Z,6.19
2023-02-05T06:52:54.634Z,6.31
2023-02-05T06:55:23.529Z,6.36
2023-02-05T06:57:52.276Z,6.31
2023-02-05T07:00:20.856Z,6.23
2023-02-05T07:02:49.651Z,6.23
2023-02-05T07:05:18.293Z,6.35
2023-02-05T07:07:48.485Z,6.40
2023-02-05T07:10:19.121Z,6.54
2023-02-05T07:12:48.040Z,6.50
2023-02-05T07:15:17.485Z,6.56
2023-02-05T07:17:45.953Z,6.61
2023-02-05T07:20:16.924Z,6.50
2023-02-05T07:22:47.473Z,6.47
2023-02-05T07:25:15.936Z,6.46
2023-02-05T07:27:44.763Z,6.40
2023-02-05T07:30:13.928Z,6.35
2023-02-05T07:32:43.169Z,6.39
2023-02-05T07:35:11.571Z,6.26
2023-02-05T07:37:40.658Z,6.31
2023-02-05T07:40:13.002Z,6.31
2023-02-05T07:42:42.494Z,6.42
2023-02-05T07:45:11.057Z,6.44
2023-02-05T07:47:40.088Z,6.54
2023-02-05T07:50:08.953Z,6.68
2023-02-05T07:52:38.192Z,6.73
2023-02-05T07:55:07.762Z,6.75
2023-02-05T07:57:36.785Z,6.74
2023-02-05T08:00:07.789Z,6.70
2023-02-05T08:02:40.525Z,6.92
2023-02-05T08:05:09.319Z,7.01
2023-02-05T08:07:38.696Z,7.01
2023-02-05T08:10:10.442Z,7.13
2023-02-05T08:12:43.007Z,7.17
2023-02-05T08:15:12.620Z,7.12
2023-02-05T08:17:42.756Z,7.04
2023-02-05T18:12:56.350Z,0.24
2023-02-05T18:15:25.740Z,1.39
2023-02-05T18:17:54.536Z,1.52
2023-02-05T18:20:23.244Z,1.70
2023-02-05T18:22:52.262Z,1.70
2023-02-05T18:25:20.810Z,2.06
2023-02-05T18:27:50.573Z,2.08
2023-02-05T18:30:24.118Z,2.23
2023-02-05T18:32:53.581Z,2.14
2023-02-05T18:35:24.419Z,1.88
2023-02-05T18:37:56.231Z,2.14
2023-02-05T18:40:25.697Z,2.12
2023-02-05T18:42:55.651Z,1.96
2023-02-05T18:45:24.617Z,2.05
2023-02-05T18:47:53.268Z,2.15
2023-02-05T18:50:22.334Z,2.27
2023-02-05T18:52:51.561Z,2.44
2023-02-05T18:55:20.426Z,2.59
2023-02-05T18:57:52.240Z,2.47
2023-02-05T19:00:21.101Z,2.52
2023-02-05T19:02:49.637Z,2.51
2023-02-05T19:05:19.854Z,2.52
2023-02-05T19:07:50.051Z,2.55
2023-02-05T19:10:19.017Z,2.57
2023-02-05T19:12:49.206Z,2.33
2023-02-05T19:15:18.318Z,2.45
2023-02-05T19:17:46.860Z,2.57
2023-02-05T19:20:15.553Z,2.59
2023-02-05T19:22:44.696Z,2.49
2023-02-05T19:25:14.001Z,2.46
2023-02-05T19:27:42.727Z,2.33
2023-02-05T19:30:14.375Z,2.48
2023-02-05T19:32:42.884Z,2.50
2023-02-05T19:35:11.940Z,2.41
2023-02-05T19:37:41.470Z,2.26
2023-02-05T19:40:12.780Z,2.22
2023-02-05T19:42:43.023Z,2.44
2023-02-05T19:45:11.820Z,2.19
2023-02-05T19:47:40.845Z,2.46
2023-02-05T19:50:09.829Z,2.58
2023-02-05T19:52:39.016Z,2.52
2023-02-05T19:55:07.712Z,2.47
2023-02-05T19:57:36.885Z,2.43
2023-02-05T20:00:07.473Z,2.21
2023-02-05T20:02:42.091Z,2.03
2023-02-05T20:05:11.142Z,1.98
2023-02-05T20:07:41.095Z,2.08
2023-02-05T20:10:10.062Z,2.11
2023-02-05T20:12:41.122Z,1.98
2023-02-05T20:15:10.245Z,2.05
2023-02-05T20:17:40.344Z,2.18
2023-02-05T20:20:28.194Z,2.44
2023-02-05T20:23:01.249Z,2.42
2023-02-05T20:25:30.102Z,2.36
2023-02-05T20:28:01.418Z,2.33
2023-02-05T20:30:48.664Z,2.32
2023-02-05T20:33:18.657Z,2.15
2023-02-05T20:35:48.600Z,2.22
2023-02-05T20:38:19.062Z,2.20
2023-02-05T20:40:47.528Z,2.45
2023-02-05T20:43:16.104Z,2.59
2023-02-05T20:45:44.974Z,2.60
2023-02-05T20:48:13.969Z,2.67
2023-02-05T20:50:43.172Z,2.63
2023-02-05T20:53:12.693Z,2.75
2023-02-05T20:55:41.439Z,2.42
2023-02-05T20:58:10.519Z,2.42
2023-02-05T21:00:40.124Z,2.56
2023-02-05T21:03:08.704Z,2.36
2023-02-05T21:05:37.578Z,2.38
2023-02-05T21:08:09.329Z,2.38
2023-02-05T21:10:38.073Z,2.08
2023-02-05T21:13:09.060Z,2.30
2023-02-05T21:15:37.694Z,2.22
2023-02-05T21:18:06.417Z,2.49
2023-02-05T21:20:35.924Z,2.39
2023-02-05T21:23:04.900Z,2.40
2023-02-05T21:25:36.073Z,2.16
2023-02-05T21:28:05.291Z,2.24
2023-02-05T21:30:35.751Z,2.36
2023-02-05T21:33:06.953Z,2.32
2023-02-05T21:35:39.145Z,2.51
2023-02-05T21:38:07.640Z,2.23
2023-02-05T21:40:37.360Z,2.10
2023-02-05T21:43:05.777Z,2.06
2023-02-05T21:45:36.819Z,2.11
2023-02-05T21:48:05.772Z,2.18
2023-02-05T21:50:36.848Z,2.14
2023-02-05T21:53:09.307Z,2.19
2023-02-05T21:55:37.760Z,2.27
2023-02-05T21:58:06.483Z,2.41
2023-02-05T22:00:35.136Z,2.44
2023-02-05T22:03:03.775Z,2.27
2023-02-05T22:05:34.476Z,1.97
2023-02-05T22:08:05.922Z,2.42
2023-02-05T22:10:35.824Z,2.29
2023-02-05T22:13:05.792Z,2.46
2023-02-05T22:15:34.568Z,2.39
2023-02-05T22:18:06.688Z,2.52
2023-02-05T22:20:36.420Z,2.48
2023-02-05T22:23:04.875Z,2.49
2023-02-05T22:25:36.377Z,2.43
2023-02-05T22:28:07.027Z,2.33
2023-02-05T22:30:36.241Z,2.01
2023-02-05T22:33:06.873Z,2.13
2023-02-05T22:35:35.719Z,2.15
2023-02-05T22:38:05.592Z,2.04
2023-02-05T22:40:34.849Z,2.05
2023-02-05T22:43:03.912Z,2.16
2023-02-05T22:45:32.942Z,2.15
2023-02-05T22:48:01.477Z,1.85
2023-02-05T22:50:31.332Z,2.00
2023-02-05T22:52:59.834Z,2.16
2023-02-05T22:55:28.308Z,2.14
2023-02-05T22:57:56.729Z,2.21
2023-02-05T23:00:25.468Z,2.07
2023-02-05T23:02:53.967Z,2.13
2023-02-05T23:05:25.091Z,2.28
2023-02-05T23:07:54.440Z,2.10
2023-02-05T23:10:26.871Z,1.75
2023-02-05T23:12:56.227Z,1.74
2023-02-05T23:15:27.413Z,1.67
2023-02-05T23:17:56.077Z,1.84
2023-02-05T23:20:24.884Z,2.06
2023-02-05T23:23:04.745Z,1.94
2023-02-05T23:25:36.899Z,1.96
2023-02-05T23:28:05.987Z,2.13
2023-02-05T23:30:34.580Z,2.08
2023-02-05T23:33:06.679Z,1.73
2023-02-05T23:35:35.883Z,1.74
2023-02-05T23:38:04.693Z,1.81
2023-02-05T23:40:36.065Z,1.86
2023-02-05T23:43:04.975Z,1.62
2023-02-05T23:45:35.014Z,1.77
2023-02-05T23:48:04.033Z,1.69
2023-02-05T23:50:34.768Z,1.95
2023-02-05T23:53:03.928Z,1.83
2023-02-05T23:55:32.464Z,2.05
2023-02-05T23:58:01.137Z,1.90
